Airports Turkey Hakkari YĆ¼ksekova Airport

Hakkari YĆ¼ksekova Airport (LTCW / YKO)

Facts about Hakkari Yüksekova Airport

Name Hakkari Yüksekova Airport
City Hakkari
Country Turkey
ICAO code LTCW
IATA code YKO
Elevation 1950.7200 meters (6400 feet)

Weather

METAR

Metar data retrieved Friday, 19 July 2024 at 23:25 UTC (5 minutes ago)

LTCW 192250Z VRB01KT 9999 FEW040 14/10 Q1012

Live traffic

Navigraph Charts (account required)